createdAt,value
2023-03-22T00:02:38.991Z,0.73
2023-03-22T00:05:40.624Z,0.90
2023-03-22T00:08:42.819Z,0.85
2023-03-22T00:11:44.298Z,0.90
2023-03-22T00:14:46.468Z,0.80
2023-03-22T00:17:50.200Z,0.80
2023-03-22T00:20:54.265Z,0.80
2023-03-22T00:23:55.821Z,0.90
2023-03-22T00:26:58.543Z,0.73
2023-03-22T00:30:00.200Z,0.80
2023-03-22T00:33:01.772Z,0.85
2023-03-22T00:36:06.746Z,0.82
2023-03-22T00:39:08.665Z,0.80
2023-03-22T00:42:10.767Z,0.80
2023-03-22T00:45:13.219Z,0.88
2023-03-22T00:48:14.873Z,0.80
2023-03-22T00:51:16.868Z,0.85
2023-03-22T00:54:18.871Z,0.77
2023-03-22T00:57:20.592Z,0.90
2023-03-22T01:00:22.376Z,0.88
2023-03-22T01:03:24.648Z,0.90
2023-03-22T01:06:27.138Z,0.80
2023-03-22T01:09:30.891Z,0.90
2023-03-22T01:12:32.385Z,0.85
2023-03-22T01:15:34.242Z,0.88
2023-03-22T01:18:36.369Z,0.88
2023-03-22T01:21:37.999Z,0.90
2023-03-22T01:24:40.035Z,0.90
2023-03-22T01:27:41.567Z,0.90
2023-03-22T01:30:43.282Z,0.88
2023-03-22T01:33:45.008Z,0.77
2023-03-22T01:36:46.516Z,0.82
2023-03-22T01:39:48.075Z,0.80
2023-03-22T01:42:53.062Z,0.80
2023-03-22T01:45:56.429Z,0.90
2023-03-22T01:49:04.927Z,1.25
2023-03-22T01:52:12.447Z,0.90
2023-03-22T01:55:34.860Z,0.90
2023-03-22T01:58:46.783Z,0.85
2023-03-22T02:01:52.546Z,0.80
2023-03-22T02:04:57.972Z,0.90
2023-03-22T02:08:03.047Z,0.90
2023-03-22T02:11:17.529Z,0.90
2023-03-22T02:14:33.184Z,1.00
2023-03-22T02:18:06.669Z,0.85
2023-03-22T02:21:14.860Z,0.90
2023-03-22T02:24:55.427Z,0.80
2023-03-22T02:28:18.741Z,0.77
2023-03-22T02:31:40.670Z,1.00
2023-03-22T02:35:17.014Z,0.90
2023-03-22T02:38:45.553Z,0.90
2023-03-22T02:42:21.569Z,0.85
2023-03-22T02:46:18.319Z,0.90
2023-03-22T02:49:19.829Z,0.80
2023-03-22T02:52:40.521Z,0.75
2023-03-22T02:55:51.207Z,0.90
2023-03-22T02:58:59.584Z,0.80
2023-03-22T03:02:03.739Z,1.00
2023-03-22T03:05:05.765Z,0.80
2023-03-22T03:08:12.267Z,1.10
2023-03-22T03:11:15.607Z,0.80
2023-03-22T03:14:26.379Z,0.73
2023-03-22T03:17:45.045Z,0.80
2023-03-22T03:21:02.245Z,0.80
2023-03-22T03:24:22.781Z,0.80
2023-03-22T03:27:33.302Z,0.90
2023-03-22T03:30:43.199Z,0.90
2023-03-22T03:33:56.026Z,1.00
2023-03-22T03:37:04.913Z,0.85
2023-03-22T03:40:12.744Z,0.80
2023-03-22T03:43:15.940Z,1.00
2023-03-22T03:46:17.621Z,0.98
2023-03-22T03:49:21.939Z,0.80
2023-03-22T03:52:26.109Z,0.73
2023-03-22T03:55:28.860Z,0.85
2023-03-22T03:58:30.631Z,1.08
2023-03-22T04:01:32.217Z,0.82
2023-03-22T04:04:44.274Z,0.90
2023-03-22T04:07:45.987Z,0.75
2023-03-22T04:10:51.819Z,0.90
2023-03-22T04:13:54.824Z,0.80
2023-03-22T04:16:58.158Z,0.75
2023-03-22T04:20:05.370Z,0.90
2023-03-22T04:23:10.953Z,0.90
2023-03-22T04:26:13.423Z,0.80
2023-03-22T04:29:26.682Z,0.70
2023-03-22T04:32:33.963Z,0.80
2023-03-22T04:35:35.627Z,0.80
2023-03-22T04:38:39.396Z,0.80
2023-03-22T04:41:43.691Z,0.90
2023-03-22T04:44:45.584Z,0.80
2023-03-22T04:47:47.686Z,0.80
2023-03-22T04:50:53.216Z,0.80
2023-03-22T04:53:58.466Z,0.80
2023-03-22T04:57:00.939Z,0.90
2023-03-22T05:00:08.397Z,1.13
2023-03-22T05:03:10.352Z,0.80
2023-03-22T05:06:15.867Z,0.77
2023-03-22T05:09:29.937Z,0.80
2023-03-22T05:12:32.561Z,1.27
2023-03-22T05:15:49.502Z,0.90
2023-03-22T05:18:54.424Z,0.70
2023-03-22T05:21:58.244Z,0.73
2023-03-22T05:25:11.608Z,0.90
2023-03-22T05:28:22.194Z,0.93
2023-03-22T05:31:34.423Z,0.90
2023-03-22T05:34:37.225Z,0.80
2023-03-22T05:37:58.901Z,0.90
2023-03-22T05:41:03.249Z,0.80
2023-03-22T05:44:07.408Z,0.90
2023-03-22T05:47:12.374Z,0.80
2023-03-22T05:50:24.183Z,0.75
2023-03-22T05:53:26.064Z,0.90
2023-03-22T05:56:35.172Z,0.80
2023-03-22T05:59:41.182Z,0.80
2023-03-22T06:02:48.530Z,0.90
2023-03-22T06:05:50.850Z,0.88
2023-03-22T06:09:06.979Z,0.80
2023-03-22T06:12:17.068Z,0.90
2023-03-22T06:15:23.579Z,0.90
2023-03-22T06:18:33.967Z,0.80
2023-03-22T06:21:43.721Z,0.70
2023-03-22T06:24:50.829Z,1.00
2023-03-22T06:28:01.849Z,0.88
2023-03-22T06:31:08.624Z,0.90
2023-03-22T06:34:36.276Z,0.90
2023-03-22T06:37:37.830Z,0.80
2023-03-22T06:40:39.904Z,0.77
2023-03-22T06:43:41.643Z,0.88
2023-03-22T06:46:57.895Z,0.80
2023-03-22T06:50:22.676Z,0.80
2023-03-22T06:53:35.490Z,0.90
2023-03-22T06:56:38.271Z,0.80
2023-03-22T06:59:40.681Z,0.80
2023-03-22T07:02:42.151Z,0.82
2023-03-22T07:06:08.449Z,0.80
2023-03-22T07:09:12.797Z,0.80
2023-03-22T07:12:14.487Z,0.70
2023-03-22T07:15:17.450Z,0.90
2023-03-22T07:18:45.069Z,0.82
2023-03-22T07:21:46.684Z,0.80
2023-03-22T07:24:56.933Z,0.88
2023-03-22T07:28:01.196Z,0.80
2023-03-22T07:31:06.926Z,0.80
2023-03-22T07:34:20.829Z,0.80
2023-03-22T07:37:35.739Z,0.82
2023-03-22T07:40:41.996Z,0.80
2023-03-22T07:43:55.237Z,0.80
2023-03-22T07:46:58.461Z,0.70
2023-03-22T07:50:06.799Z,0.75
2023-03-22T07:53:09.417Z,0.80
2023-03-22T07:56:10.975Z,0.90
2023-03-22T07:59:13.358Z,0.85
2023-03-22T08:02:16.021Z,0.80
2023-03-22T08:05:22.592Z,0.80
2023-03-22T08:08:31.311Z,1.38
2023-03-22T08:11:33.478Z,0.90
2023-03-22T08:14:37.114Z,0.95
2023-03-22T08:17:42.965Z,0.88
2023-03-22T08:20:58.739Z,0.90
2023-03-22T08:24:03.926Z,0.90
2023-03-22T08:27:34.477Z,0.70
2023-03-22T08:30:36.519Z,0.90
2023-03-22T08:33:38.583Z,0.90
2023-03-22T08:36:40.846Z,0.90
2023-03-22T08:39:43.747Z,0.77
2023-03-22T08:43:11.253Z,0.90
2023-03-22T08:46:12.984Z,1.00
2023-03-22T08:49:16.612Z,1.08
2023-03-22T08:52:27.020Z,0.88
2023-03-22T08:55:37.453Z,0.80
2023-03-22T08:58:47.692Z,0.90
2023-03-22T09:02:01.975Z,0.80
2023-03-22T09:05:04.158Z,1.00
2023-03-22T09:08:06.901Z,0.90
2023-03-22T09:11:17.912Z,0.80
2023-03-22T09:14:21.298Z,0.90
2023-03-22T09:17:23.385Z,0.90
2023-03-22T09:20:25.880Z,0.85
2023-03-22T09:23:28.961Z,0.93
2023-03-22T09:26:30.597Z,0.90
2023-03-22T09:29:32.428Z,1.00
2023-03-22T09:32:40.264Z,0.90
2023-03-22T09:35:43.216Z,1.17
2023-03-22T09:38:48.096Z,1.00
2023-03-22T09:41:54.903Z,0.77
2023-03-22T09:44:57.977Z,1.08
2023-03-22T09:48:06.934Z,1.00
2023-03-22T09:51:28.836Z,0.90
2023-03-22T09:54:37.428Z,0.80
2023-03-22T09:57:39.669Z,0.90
2023-03-22T10:01:08.206Z,0.90
2023-03-22T10:04:12.367Z,0.95
2023-03-22T10:07:22.575Z,0.90
2023-03-22T10:10:25.129Z,1.00
2023-03-22T10:13:58.925Z,0.90
2023-03-22T10:17:05.674Z,0.90
2023-03-22T10:20:18.220Z,1.05
2023-03-22T10:23:50.801Z,1.00
2023-03-22T10:26:53.317Z,0.90
2023-03-22T10:30:10.157Z,1.10
2023-03-22T10:33:22.544Z,0.90
2023-03-22T10:36:30.972Z,0.80
2023-03-22T10:39:46.366Z,0.88
2023-03-22T10:42:54.501Z,1.02
2023-03-22T10:45:58.153Z,1.02
2023-03-22T10:49:01.462Z,1.27
2023-03-22T10:52:21.246Z,1.35
2023-03-22T10:55:24.297Z,1.40
2023-03-22T10:58:34.087Z,1.40
2023-03-22T11:01:43.841Z,1.67
2023-03-22T11:04:53.837Z,1.50
2023-03-22T11:07:58.351Z,1.55
2023-03-22T11:11:00.275Z,1.77
2023-03-22T11:14:07.208Z,1.88
2023-03-22T11:17:14.029Z,1.70
2023-03-22T11:20:17.876Z,1.80
2023-03-22T11:23:21.552Z,1.73
2023-03-22T11:26:35.672Z,1.75
2023-03-22T11:29:49.270Z,1.70
2023-03-22T11:33:15.558Z,1.38
2023-03-22T11:36:19.042Z,1.57
2023-03-22T11:39:22.194Z,1.33
2023-03-22T11:42:23.729Z,1.20
2023-03-22T11:45:30.908Z,1.20
2023-03-22T11:48:34.618Z,1.23
2023-03-22T11:51:38.968Z,1.30
2023-03-22T11:54:42.290Z,1.30
2023-03-22T11:57:44.013Z,1.20
2023-03-22T12:00:46.469Z,1.20
2023-03-22T12:03:54.511Z,1.20
2023-03-22T12:06:59.802Z,1.20
2023-03-22T12:10:10.842Z,1.00
2023-03-22T12:13:21.292Z,1.15
2023-03-22T12:16:28.147Z,1.27
2023-03-22T12:19:36.925Z,1.30
2023-03-22T12:22:43.189Z,1.08
2023-03-22T12:25:51.299Z,1.13
2023-03-22T12:29:01.415Z,1.10
2023-03-22T12:32:09.736Z,1.20
2023-03-22T12:35:24.034Z,1.00
2023-03-22T12:38:42.994Z,1.10
2023-03-22T12:41:47.965Z,0.90
2023-03-22T12:45:04.202Z,1.10
2023-03-22T12:48:18.915Z,1.00
2023-03-22T12:51:20.816Z,0.95
2023-03-22T12:54:25.356Z,0.90
2023-03-22T12:57:27.292Z,0.95
2023-03-22T13:00:38.279Z,1.00
2023-03-22T13:03:47.199Z,1.00
2023-03-22T13:07:07.994Z,1.00
2023-03-22T13:10:31.768Z,0.90
2023-03-22T13:13:41.719Z,1.10
2023-03-22T13:16:52.955Z,1.05
2023-03-22T13:20:07.945Z,1.00
2023-03-22T13:23:24.459Z,0.95
2023-03-22T13:26:45.947Z,0.95
2023-03-22T13:29:53.958Z,1.00
2023-03-22T13:33:14.845Z,0.88
2023-03-22T13:36:25.461Z,1.00
2023-03-22T13:39:34.590Z,1.15
2023-03-22T13:42:39.069Z,1.00
2023-03-22T13:45:58.322Z,0.90
2023-03-22T13:49:01.028Z,0.90
2023-03-22T13:52:08.181Z,0.90
2023-03-22T13:55:46.787Z,1.00
2023-03-22T13:58:52.933Z,1.00
2023-03-22T14:01:57.413Z,1.00
2023-03-22T14:05:07.903Z,0.90
2023-03-22T14:08:20.362Z,0.90
2023-03-22T14:11:45.962Z,0.90
2023-03-22T14:14:54.980Z,0.90
2023-03-22T14:18:00.682Z,0.95
2023-03-22T14:21:09.144Z,0.80
